Time;durP1;ratioP1;P1;durP2;ratioP2;P2;SDS_P1;SDS_P2;PMS_P1;PMS_P2;Temp;Humidity;BMP_temperature;BMP_pressure;BME280_temperature;BME280_humidity;BME280_pressure;Samples;Min_cycle;Max_cycle;Signal;HPM_P1;HPM_P2
2022/03/21 00:00:57;;;;;;;63.78;24.92;;;;;;;-1.41;78.17;99370.06;5004214;28;20037;-85
2022/03/21 00:03:25;;;;;;;57.95;24.73;;;;;;;-1.32;77.32;99368.47;4997416;28;20026;-85
2022/03/21 00:05:51;;;;;;;66.38;27.00;;;;;;;-1.33;76.97;99381.56;4985087;28;20045;-84
2022/03/21 00:08:18;;;;;;;49.42;21.98;;;;;;;-1.56;78.18;99362.84;5002368;28;20038;-85
2022/03/21 00:10:44;;;;;;;61.00;26.00;;;;;;;-1.55;79.17;99366.38;4985734;28;20025;-85
2022/03/21 00:13:14;;;;;;;56.13;23.80;;;;;;;-1.63;79.52;99348.75;5017719;28;20029;-85
2022/03/21 00:15:40;;;;;;;67.38;26.88;;;;;;;-1.63;79.81;99343.53;5018091;28;20028;-85
2022/03/21 00:18:06;;;;;;;65.90;26.70;;;;;;;-1.51;80.04;99376.06;5018971;28;20207;-85
2022/03/21 00:20:32;;;;;;;57.63;27.58;;;;;;;-1.55;79.87;99363.75;5001306;28;20104;-85
2022/03/21 00:22:58;;;;;;;68.05;28.67;;;;;;;-1.68;80.17;99333.81;5018138;28;20017;-85
2022/03/21 00:25:24;;;;;;;80.40;32.65;;;;;;;-1.79;80.17;99317.94;5017436;28;20033;-85
2022/03/21 00:27:50;;;;;;;93.50;38.80;;;;;;;-1.75;80.33;99330.22;5001122;28;20035;-85
2022/03/21 00:30:16;;;;;;;83.85;33.33;;;;;;;-1.69;80.79;99343.44;5013196;28;20116;-85
2022/03/21 00:36:05;;;;;;;91.85;35.90;;;;;;;-1.66;80.88;99366.19;5035237;28;20045;-86
2022/03/21 00:38:31;;;;;;;83.78;34.03;;;;;;;-2.00;81.56;99346.41;5000825;28;20501;-85
2022/03/21 00:40:57;;;;;;;77.50;33.78;;;;;;;-2.20;81.90;99338.25;5017240;28;20045;-86
2022/03/21 00:43:24;;;;;;;78.35;33.28;;;;;;;-2.10;82.33;99362.88;5017550;28;20108;-85
2022/03/21 00:45:52;;;;;;;70.90;29.30;;;;;;;-2.33;82.89;99338.88;5000899;28;20037;-86
2022/03/21 00:48:18;;;;;;;61.05;23.55;;;;;;;-2.48;83.50;99337.72;5016827;28;20029;-86
2022/03/21 00:50:44;;;;;;;44.45;21.05;;;;;;;-2.74;84.80;99306.69;5016682;28;20033;-85
2022/03/21 00:53:09;;;;;;;44.03;20.92;;;;;;;-2.48;85.93;99350.81;5000101;28;20076;-85
2022/03/21 00:55:35;;;;;;;52.30;21.98;;;;;;;-2.67;86.59;99333.88;5016917;28;20485;-85
2022/03/21 00:58:01;;;;;;;47.55;22.35;;;;;;;-2.56;87.54;99355.94;5016734;28;20025;-84
2022/03/21 01:00:28;;;;;;;58.72;25.60;;;;;;;-2.78;88.65;99320.59;5016546;28;20116;-85
2022/03/21 01:02:56;;;;;;;66.80;29.13;;;;;;;-2.65;89.62;99349.63;5000579;28;20032;-84
2022/03/21 01:05:22;;;;;;;65.32;27.23;;;;;;;-2.66;90.76;99334.75;5016247;28;20040;-84
2022/03/21 01:07:49;;;;;;;71.15;29.85;;;;;;;-2.56;89.60;99344.56;5016935;28;20457;-85
2022/03/21 01:10:16;;;;;;;66.65;30.13;;;;;;;-2.81;90.23;99317.91;5016454;28;20029;-85
2022/03/21 01:12:42;;;;;;;52.33;22.92;;;;;;;-2.86;90.58;99314.31;5016449;28;20021;-85
2022/03/21 01:15:08;;;;;;;55.47;23.63;;;;;;;-2.85;91.10;99303.00;5016707;28;20447;-85
2022/03/21 01:17:34;;;;;;;54.17;23.98;;;;;;;-2.79;91.27;99324.06;5016504;28;20106;-85
2022/03/21 01:20:00;;;;;;;53.22;24.58;;;;;;;-2.83;91.80;99327.47;5016712;28;20029;-85
2022/03/21 01:25:47;;;;;;;51.78;22.13;;;;;;;-2.85;91.66;99317.81;5034413;28;20040;-85
2022/03/21 01:28:13;;;;;;;54.88;24.33;;;;;;;-2.90;90.95;99296.81;5016233;28;20029;-85
2022/03/21 01:30:39;;;;;;;51.83;23.55;;;;;;;-2.92;91.29;99315.94;5016127;28;20055;-85
2022/03/21 01:33:07;;;;;;;51.50;23.45;;;;;;;-2.96;90.97;99288.84;5016057;28;20053;-85
2022/03/21 01:35:33;;;;;;;55.58;24.73;;;;;;;-2.67;90.16;99340.84;5016389;28;20108;-85
2022/03/21 01:37:58;;;;;;;57.00;24.02;;;;;;;-2.89;90.92;99314.25;5016294;28;20075;-85
2022/03/21 01:40:24;;;;;;;55.83;26.30;;;;;;;-2.95;90.85;99295.81;5015344;28;20041;-85
2022/03/21 01:42:50;;;;;;;47.00;22.75;;;;;;;-2.71;90.69;99321.59;5015371;28;20032;-85
2022/03/21 01:45:19;;;;;;;44.72;21.75;;;;;;;-2.86;91.08;99288.13;5015932;28;20551;-85
2022/03/21 01:47:46;;;;;;;50.80;21.88;;;;;;;-2.78;90.96;99312.75;5016177;28;20022;-85
2022/03/21 01:50:14;;;;;;;49.78;24.73;;;;;;;-2.77;91.32;99306.63;5016003;28;20025;-85
2022/03/21 01:52:41;;;;;;;52.03;23.60;;;;;;;-2.81;91.27;99317.91;4999203;28;20021;-85
2022/03/21 01:57:52;;;;;;;50.67;24.33;;;;;;;-2.71;91.88;99337.31;5012637;28;20076;-85
2022/03/21 02:00:17;;;;;;;43.50;20.85;;;;;;;-2.86;91.19;99301.22;5012243;28;20021;-77
2022/03/21 02:02:43;;;;;;;42.50;20.05;;;;;;;-2.62;89.93;99323.50;5013328;28;20468;-84
2022/03/21 02:05:09;;;;;;;50.83;21.23;;;;;;;-2.52;89.65;99323.69;4997913;28;20030;-85
2022/03/21 02:07:35;;;;;;;47.20;20.83;;;;;;;-2.45;88.24;99320.31;5013777;28;20026;-85
2022/03/21 02:10:02;;;;;;;40.28;19.50;;;;;;;-2.53;87.33;99326.28;4995735;28;20401;-84
2022/03/21 02:12:29;;;;;;;46.63;22.95;;;;;;;-2.33;86.84;99332.75;5012343;28;20029;-84
2022/03/21 02:14:55;;;;;;;49.13;22.08;;;;;;;-2.48;86.25;99330.75;5011772;28;20021;-84
2022/03/21 02:20:43;;;;;;;56.70;22.88;;;;;;;-2.55;86.29;99333.25;5013591;28;20088;-84
2022/03/21 02:23:24;;;;;;;46.60;22.25;;;;;;;-2.53;86.35;99336.75;5011558;28;20022;-84
2022/03/21 02:25:50;;;;;;;54.87;25.03;;;;;;;-2.46;86.04;99330.78;5012281;28;20030;-84
2022/03/21 02:28:17;;;;;;;46.65;23.27;;;;;;;-2.45;85.47;99350.88;5015183;28;20063;-84
2022/03/21 02:30:45;;;;;;;50.20;21.95;;;;;;;-2.47;86.31;99331.63;5015359;28;20452;-84
2022/03/21 02:33:12;;;;;;;47.00;21.92;;;;;;;-2.24;85.90;99346.00;5015129;28;20032;-84
2022/03/21 02:35:39;;;;;;;54.17;24.63;;;;;;;-2.32;84.54;99322.31;5014873;28;20049;-84
2022/03/21 02:38:05;;;;;;;54.95;24.02;;;;;;;-2.14;84.60;99332.22;5014920;28;20555;-84
2022/03/21 02:40:31;;;;;;;54.00;24.27;;;;;;;-2.16;84.39;99339.19;5015148;28;20061;-85
2022/03/21 02:42:57;;;;;;;58.80;24.90;;;;;;;-2.38;85.40;99342.28;5015487;28;20048;-84
2022/03/21 02:45:22;;;;;;;49.00;24.33;;;;;;;-2.45;86.03;99329.91;5015302;28;20034;-85
2022/03/21 02:47:48;;;;;;;57.22;25.85;;;;;;;-2.21;85.42;99327.72;5015539;28;20034;-85
2022/03/21 02:53:38;;;;;;;58.22;25.63;;;;;;;-2.52;86.88;99349.88;5032828;28;20051;-85
2022/03/21 02:56:04;;;;;;;56.88;25.85;;;;;;;-2.59;89.08;99347.13;5015461;28;20112;-85
2022/03/21 02:58:30;;;;;;;54.60;25.35;;;;;;;-2.69;89.74;99339.94;5015522;28;20129;-84
2022/03/21 03:01:23;;;;;;;56.50;25.45;;;;;;;-2.81;89.90;99340.59;4997106;28;20446;-84
2022/03/21 03:03:49;;;;;;;49.05;22.85;;;;;;;-2.93;90.12;99330.78;4995782;28;20025;-85
2022/03/21 03:06:15;;;;;;;66.63;26.95;;;;;;;-2.95;91.12;99342.94;4996126;28;20408;-85
2022/03/21 03:08:42;;;;;;;54.53;24.73;;;;;;;-3.02;91.70;99341.06;4993791;28;20083;-84
2022/03/21 03:11:08;;;;;;;73.57;29.10;;;;;;;-3.09;92.82;99328.69;5015519;28;20444;-84
2022/03/21 03:13:34;;;;;;;79.68;33.92;;;;;;;-2.78;92.45;99345.91;5014785;28;20029;-86
2022/03/21 03:16:00;;;;;;;86.28;36.08;;;;;;;-2.64;92.35;99338.28;4998274;28;20428;-85
2022/03/21 03:18:25;;;;;;;80.82;33.15;;;;;;;-2.51;90.87;99335.03;4998384;28;20031;-85
2022/03/21 03:20:53;;;;;;;77.43;31.20;;;;;;;-2.53;90.23;99347.25;5015246;28;20369;-84
2022/03/21 03:23:22;;;;;;;76.30;33.70;;;;;;;-2.58;90.05;99341.91;5014505;28;20033;-83
2022/03/21 03:25:57;;;;;;;63.65;27.77;;;;;;;-2.57;89.84;99343.69;5014201;28;20034;-86
2022/03/21 03:28:23;;;;;;;65.20;25.77;;;;;;;-2.80;90.56;99335.38;5014700;28;20033;-84
2022/03/21 03:30:49;;;;;;;65.70;26.65;;;;;;;-2.73;91.51;99354.72;5015301;28;20041;-85
2022/03/21 03:33:15;;;;;;;59.22;25.10;;;;;;;-2.80;92.47;99338.00;5015603;28;20132;-85
2022/03/21 03:35:41;;;;;;;51.40;23.33;;;;;;;-2.60;92.05;99327.91;5017778;28;20128;-85
2022/03/21 03:38:06;;;;;;;52.00;22.15;;;;;;;-2.55;90.25;99333.25;5018903;28;20030;-86
2022/03/21 03:40:32;;;;;;;48.88;20.98;;;;;;;-2.59;89.05;99339.28;5018179;28;20030;-87
2022/03/21 03:42:58;;;;;;;52.20;23.08;;;;;;;-2.80;87.17;99322.28;5018425;28;20382;-86
2022/03/21 03:45:25;;;;;;;46.15;22.55;;;;;;;-2.92;88.04;99331.63;5018666;28;20040;-86
2022/03/21 03:47:51;;;;;;;51.60;23.17;;;;;;;-2.93;89.29;99335.13;5018827;28;20362;-85
2022/03/21 03:50:17;;;;;;;51.83;21.98;;;;;;;-2.91;89.79;99329.06;5003085;28;20095;-85
2022/03/21 03:52:46;;;;;;;55.63;23.67;;;;;;;-2.87;90.12;99341.38;5002217;28;20021;-84
2022/03/21 03:55:17;;;;;;;56.83;23.30;;;;;;;-2.93;90.44;99330.78;5018679;28;20026;-86
2022/03/21 03:57:44;;;;;;;47.65;21.60;;;;;;;-2.76;90.14;99329.34;5017523;28;20045;-84
2022/03/21 04:00:11;;;;;;;53.95;24.27;;;;;;;-2.80;89.70;99338.00;5018183;28;20026;-84
2022/03/21 04:05:22;;;;;;;52.08;21.17;;;;;;;-3.01;90.49;99336.69;5020720;28;20092;-84
2022/03/21 04:07:49;;;;;;;45.70;21.80;;;;;;;-3.08;91.68;99332.19;5017725;28;20124;-84
2022/03/21 04:10:15;;;;;;;53.83;21.75;;;;;;;-3.01;91.70;99334.06;5018054;28;20040;-85
2022/03/21 04:12:43;;;;;;;52.45;23.42;;;;;;;-2.87;91.42;99332.63;5018025;28;20029;-85
2022/03/21 04:15:09;;;;;;;53.50;24.77;;;;;;;-2.75;90.49;99325.88;5002361;28;20475;-85
2022/03/21 04:17:35;;;;;;;54.03;22.85;;;;;;;-2.82;90.28;99315.25;5001909;28;20117;-86
2022/03/21 04:23:23;;;;;;;58.33;23.48;;;;;;;-3.09;92.71;99331.31;5036215;28;20032;-85
2022/03/21 04:25:51;;;;;;;49.25;22.63;;;;;;;-3.22;92.57;99321.44;5017165;28;20025;-85
2022/03/21 04:28:17;;;;;;;46.88;19.75;;;;;;;-3.36;92.98;99331.63;5001366;28;20386;-84
2022/03/21 04:30:46;;;;;;;55.35;21.42;;;;;;;-3.47;94.52;99313.91;5017004;28;20084;-85
2022/03/21 04:33:12;;;;;;;63.70;24.30;;;;;;;-3.23;95.58;99332.78;5017200;28;20460;-86
2022/03/21 04:35:38;;;;;;;74.70;26.48;;;;;;;-3.49;95.97;99310.41;5016958;28;20045;-85
2022/03/21 04:38:13;;;;;;;52.30;22.75;;;;;;;-3.39;97.79;99314.97;5017145;28;20506;-83
2022/03/21 04:40:54;;;;;;;53.97;22.77;;;;;;;-3.18;97.13;99318.03;5010120;28;20025;-85
2022/03/21 04:43:20;;;;;;;64.40;25.80;;;;;;;-3.22;96.87;99323.16;5004724;28;20416;-85
2022/03/21 04:45:47;;;;;;;60.15;24.85;;;;;;;-3.19;97.76;99324.13;5018814;28;20112;-85
2022/03/21 04:48:14;;;;;;;66.10;24.38;;;;;;;-2.93;97.02;99325.53;5017284;28;20067;-85
2022/03/21 04:50:40;;;;;;;63.65;26.27;;;;;;;-2.72;95.26;99329.41;5017564;28;20467;-85
2022/03/21 04:53:13;;;;;;;57.78;23.95;;;;;;;-2.90;94.18;99324.72;5017453;28;20029;-85
2022/03/21 04:55:42;;;;;;;56.78;23.15;;;;;;;-2.96;93.67;99286.22;5019316;28;20489;-85
2022/03/21 04:58:11;;;;;;;58.30;23.30;;;;;;;-2.83;93.01;99314.38;5017202;28;20036;-85
2022/03/21 05:00:38;;;;;;;58.95;22.70;;;;;;;-2.60;92.87;99320.06;5017313;28;20032;-85
2022/03/21 05:03:07;;;;;;;52.03;21.50;;;;;;;-2.57;90.78;99299.16;5017419;28;20507;-84
2022/03/21 05:05:35;;;;;;;49.03;21.75;;;;;;;-2.24;87.58;99320.69;5017095;28;20029;-85
2022/03/21 05:08:02;;;;;;;52.83;23.52;;;;;;;-2.35;86.78;99305.66;5016687;28;20025;-86
2022/03/21 05:10:29;;;;;;;71.47;32.28;;;;;;;-2.05;85.88;99321.88;5016540;28;20083;-85
2022/03/21 05:12:55;;;;;;;84.28;35.58;;;;;;;-1.69;84.97;99326.81;5016493;28;20048;-83
2022/03/21 05:15:20;;;;;;;76.25;34.00;;;;;;;-1.41;82.66;99309.72;5016280;28;20029;-86
2022/03/21 05:17:46;;;;;;;85.10;37.80;;;;;;;-0.87;80.12;99305.19;5015979;28;20033;-85
2022/03/21 05:32:01;;;;;;;100.43;42.30;;;;;;;3.30;59.01;99262.47;4972518;28;20501;-87
2022/03/21 05:37:11;;;;;;;121.38;51.17;;;;;;;4.76;53.95;99276.28;5019068;28;20072;-86
2022/03/21 05:40:31;;;;;;;105.00;49.38;;;;;;;4.48;53.56;99280.09;5016034;28;20025;-87
2022/03/21 05:42:22;;;;;;;99.18;45.47;;;;;;;3.57;54.82;99272.03;5010882;28;20029;-86
2022/03/21 05:44:48;;;;;;;90.00;43.20;;;;;;;2.94;57.04;99279.41;4998242;28;20038;-86
2022/03/21 05:47:13;;;;;;;110.22;47.78;;;;;;;2.35;59.26;99303.31;5008397;28;20057;-86
2022/03/21 05:49:39;;;;;;;138.50;60.42;;;;;;;1.91;61.52;99300.69;4998623;28;20033;-87
2022/03/21 05:52:05;;;;;;;171.50;79.18;;;;;;;1.83;62.92;99291.03;5004982;28;20401;-86
2022/03/21 05:54:30;;;;;;;196.38;84.25;;;;;;;2.39;63.10;99302.44;4995386;28;20497;-88
2022/03/21 05:56:56;;;;;;;137.15;58.45;;;;;;;3.14;58.51;99295.16;5008200;28;20025;-88
2022/03/21 06:02:06;;;;;;;137.05;60.33;;;;;;;4.30;53.62;99272.34;5004476;28;20466;-86
2022/03/21 06:04:31;;;;;;;123.90;57.40;;;;;;;2.85;57.50;99297.06;5004689;28;20109;-86
2022/03/21 06:06:57;;;;;;;127.05;56.53;;;;;;;2.63;58.98;99314.72;4999291;28;20029;-85
2022/03/21 06:09:23;;;;;;;135.05;58.03;;;;;;;2.71;58.65;99302.38;5016110;28;20029;-87
2022/03/21 06:11:48;;;;;;;200.93;90.22;;;;;;;2.33;61.88;99310.38;5015972;28;20026;-87
2022/03/21 06:14:18;;;;;;;200.90;87.53;;;;;;;2.18;63.03;99320.94;5016018;28;20505;-87
2022/03/21 06:16:44;;;;;;;202.35;89.35;;;;;;;2.30;62.60;99318.31;5008689;28;20037;-86
2022/03/21 06:19:09;;;;;;;193.00;88.43;;;;;;;2.37;62.69;99333.25;5016207;28;20083;-86
2022/03/21 06:21:35;;;;;;;165.35;75.75;;;;;;;2.57;61.09;99307.69;4998891;28;20033;-86
2022/03/21 06:24:01;;;;;;;129.15;62.38;;;;;;;2.52;59.91;99316.53;5000091;28;20029;-86
2022/03/21 06:26:26;;;;;;;130.05;58.97;;;;;;;2.39;60.71;99320.94;5015651;28;20069;-86
2022/03/21 06:28:52;;;;;;;153.52;73.20;;;;;;;2.78;60.83;99313.81;5015494;28;20098;-87
2022/03/21 06:31:17;;;;;;;148.25;66.90;;;;;;;2.98;60.26;99309.34;5016229;28;20094;-87
2022/03/21 06:33:43;;;;;;;136.75;57.83;;;;;;;3.31;57.46;99282.75;5018235;28;20091;-86
2022/03/21 06:36:09;;;;;;;127.93;58.10;;;;;;;3.84;55.50;99287.72;5000504;28;20054;-86
2022/03/21 06:38:35;;;;;;;111.30;50.75;;;;;;;4.61;53.70;99289.69;5012420;28;20033;-87
2022/03/21 06:41:01;;;;;;;114.30;51.53;;;;;;;4.48;52.79;99288.06;4999111;28;20033;-88
2022/03/21 06:43:27;;;;;;;120.35;52.63;;;;;;;4.75;52.53;99295.72;5015714;28;20033;-85
2022/03/21 06:45:55;;;;;;;104.53;50.30;;;;;;;5.13;51.93;99271.41;5012406;28;20037;-86
2022/03/21 06:48:21;;;;;;;112.93;47.35;;;;;;;6.76;48.28;99252.00;4999797;28;20056;-85
2022/03/21 06:50:48;;;;;;;86.50;40.63;;;;;;;6.55;46.72;99252.41;5012820;28;20089;-85
2022/03/21 06:53:15;;;;;;;89.63;37.92;;;;;;;6.80;46.16;99243.03;5012393;28;20022;-86
2022/03/21 06:55:42;;;;;;;98.30;38.00;;;;;;;7.18;46.54;99255.56;5015316;28;20033;-87
2022/03/21 06:58:11;;;;;;;91.60;37.05;;;;;;;7.65;44.70;99217.22;5016227;28;20029;-86
2022/03/21 07:00:39;;;;;;;75.78;35.35;;;;;;;8.25;43.00;99224.63;5012565;28;20041;-88
2022/03/21 07:03:05;;;;;;;82.50;37.97;;;;;;;8.73;43.15;99225.16;5015241;28;20104;-87
2022/03/21 07:05:31;;;;;;;80.80;37.05;;;;;;;10.35;39.75;99196.91;5011405;28;20034;-88
2022/03/21 07:07:56;;;;;;;86.15;40.17;;;;;;;11.30;37.07;99212.13;4998457;28;20029;-89
2022/03/21 07:10:22;;;;;;;113.53;53.80;;;;;;;12.32;34.59;99189.25;4991085;28;20037;-88
2022/03/21 07:12:48;;;;;;;106.40;57.30;;;;;;;12.63;34.23;99186.13;5001703;28;20124;-90
2022/03/21 07:15:15;;;;;;;89.93;49.22;;;;;;;12.08;33.72;99201.03;5021179;28;20128;-88
2022/03/21 07:17:42;;;;;;;96.78;50.05;;;;;;;11.77;34.27;99201.41;5002268;28;20099;-85
2022/03/21 07:20:11;;;;;;;93.13;47.30;;;;;;;12.89;33.04;99189.38;5012169;28;20029;-87
2022/03/21 07:22:37;;;;;;;107.30;51.92;;;;;;;12.43;33.46;99192.34;5021237;28;20030;-88
2022/03/21 07:25:03;;;;;;;112.85;51.92;;;;;;;13.70;31.74;99180.25;5001962;28;20038;-88
2022/03/21 07:27:29;;;;;;;116.63;54.20;;;;;;;14.55;30.12;99175.03;4984917;28;20033;-89
2022/03/21 07:29:54;;;;;;;108.28;58.10;;;;;;;15.07;29.80;99164.22;5000712;28;20026;-86
2022/03/21 07:32:20;;;;;;;91.97;50.63;;;;;;;13.93;28.64;99161.19;5005527;28;20036;-87
2022/03/21 07:34:46;;;;;;;146.30;82.13;;;;;;;14.89;28.60;99154.41;5020540;28;20026;-88
2022/03/21 07:37:12;;;;;;;86.78;47.83;;;;;;;15.23;27.76;99154.31;5020086;28;20029;-88
2022/03/21 07:39:39;;;;;;;75.40;41.97;;;;;;;15.08;27.32;99155.16;5002279;28;20493;-89
2022/03/21 07:42:07;;;;;;;50.60;27.50;;;;;;;15.86;25.26;99148.97;5019182;28;20028;-89
2022/03/21 07:47:17;;;;;;;105.28;33.92;;;;;;;16.20;25.95;99132.56;5022317;28;20083;-90
2022/03/21 07:49:46;;;;;;;49.92;25.85;;;;;;;15.87;25.15;99134.53;5019987;28;20022;-88
2022/03/21 07:52:12;;;;;;;61.95;32.65;;;;;;;15.16;25.98;99134.91;5020463;28;20127;-89
2022/03/21 07:54:39;;;;;;;52.05;31.58;;;;;;;15.91;24.69;99130.69;5020062;28;20037;-88
2022/03/21 07:57:05;;;;;;;61.53;34.28;;;;;;;16.40;24.89;99132.22;5019299;28;20025;-89
2022/03/21 07:59:32;;;;;;;55.30;30.73;;;;;;;16.03;24.60;99129.97;5020787;28;20099;-91
2022/03/21 08:02:00;;;;;;;38.00;22.25;;;;;;;16.45;24.36;99105.81;5020593;28;20039;-92
2022/03/21 08:04:25;;;;;;;42.53;18.25;;;;;;;17.17;23.89;99105.78;5020254;28;20026;-90
2022/03/21 08:06:53;;;;;;;42.65;21.42;;;;;;;17.32;22.82;99099.41;5019348;28;20067;-89
2022/03/21 08:09:19;;;;;;;27.65;13.32;;;;;;;16.42;23.13;99110.53;5019776;28;20029;-88
2022/03/21 08:11:45;;;;;;;22.15;13.50;;;;;;;15.69;24.09;99112.16;5018942;28;20033;-87
2022/03/21 08:14:11;;;;;;;19.13;11.07;;;;;;;16.48;23.35;99100.22;5018200;28;20038;-87
2022/03/21 08:16:37;;;;;;;20.15;13.23;;;;;;;18.00;22.11;99117.53;5018205;28;20090;-87
2022/03/21 08:19:03;;;;;;;24.38;12.40;;;;;;;17.01;22.62;99125.81;5008393;28;20113;-79
2022/03/21 08:21:28;;;;;;;26.27;12.88;;;;;;;16.78;23.18;99120.00;4995525;28;20076;-79
2022/03/21 08:23:54;;;;;;;35.35;20.98;;;;;;;14.90;24.96;99130.06;4998262;28;20137;-79
2022/03/21 08:26:19;;;;;;;23.63;12.80;;;;;;;15.86;23.72;99127.38;4998279;28;20037;-79
2022/03/21 08:28:45;;;;;;;34.22;20.30;;;;;;;16.74;23.46;99125.66;5012126;28;20133;-80
2022/03/21 08:31:15;;;;;;;29.88;16.05;;;;;;;16.01;24.46;99129.19;5015021;28;20424;-79
2022/03/21 08:33:41;;;;;;;22.55;12.45;;;;;;;18.17;21.94;99110.03;5014861;28;20167;-80
2022/03/21 08:36:08;;;;;;;51.10;32.00;;;;;;;19.07;21.65;99101.91;5014604;28;20195;-79
2022/03/21 08:38:33;;;;;;;22.65;13.93;;;;;;;20.23;20.52;99097.78;4998448;28;20025;-79
2022/03/21 08:40:59;;;;;;;20.52;13.32;;;;;;;19.50;20.82;99101.56;5003748;28;20035;-79
2022/03/21 08:43:25;;;;;;;26.23;14.63;;;;;;;18.49;22.25;99106.97;5014590;28;20116;-80
2022/03/21 08:45:51;;;;;;;21.60;13.50;;;;;;;18.72;21.59;99109.84;5015118;28;20485;-80
2022/03/21 08:48:17;;;;;;;23.98;14.45;;;;;;;17.59;21.85;99107.63;5013862;28;20073;-80
2022/03/21 08:50:43;;;;;;;27.90;16.25;;;;;;;17.83;22.35;99091.59;5008552;28;20021;-80
2022/03/21 08:53:08;;;;;;;29.35;16.88;;;;;;;17.78;22.74;99097.28;5012737;28;20022;-82
2022/03/21 08:55:34;;;;;;;27.17;16.90;;;;;;;16.72;23.39;99104.16;5011752;28;20031;-77
2022/03/21 08:58:00;;;;;;;28.38;16.02;;;;;;;16.86;23.92;99097.03;5011580;28;20370;-77
2022/03/21 09:00:26;;;;;;;41.83;18.02;;;;;;;16.00;24.24;99100.44;5014109;28;20025;-78
2022/03/21 09:05:36;;;;;;;28.23;16.38;;;;;;;14.64;25.51;99112.59;5016882;28;20083;-75
2022/03/21 09:08:02;;;;;;;26.73;16.30;;;;;;;13.82;26.37;99104.34;5014013;28;20124;-80
2022/03/21 09:10:27;;;;;;;25.63;14.73;;;;;;;15.32;24.94;99110.66;4997705;28;20108;-79
2022/03/21 09:12:53;;;;;;;28.98;13.70;;;;;;;13.03;26.93;99105.50;4997839;28;20021;-76
2022/03/21 09:15:20;;;;;;;37.03;15.00;;;;;;;13.68;26.98;99113.09;5013849;28;20037;-77
2022/03/21 09:17:45;;;;;;;26.80;13.40;;;;;;;13.90;25.91;99107.53;5002850;28;20033;-78
2022/03/21 09:20:13;;;;;;;24.83;13.52;;;;;;;13.28;26.31;99110.59;5009269;28;20060;-78
2022/03/21 09:22:39;;;;;;;20.63;13.23;;;;;;;12.97;27.48;99103.97;5004404;28;20516;-78
2022/03/21 09:25:05;;;;;;;25.33;14.50;;;;;;;14.27;26.72;99096.63;4994817;28;20383;-77
2022/03/21 09:27:31;;;;;;;28.38;13.85;;;;;;;14.77;25.35;99101.16;5010980;28;20029;-78
2022/03/21 09:32:40;;;;;;;41.25;19.33;;;;;;;14.05;25.68;99104.94;5007126;28;20028;-78
2022/03/21 09:35:07;;;;;;;27.20;13.52;;;;;;;11.32;27.88;99099.56;4994666;28;20054;-78
2022/03/21 09:37:32;;;;;;;32.08;17.05;;;;;;;10.29;29.64;99109.75;5010749;28;20523;-77
2022/03/21 09:39:59;;;;;;;25.95;12.55;;;;;;;10.85;29.43;99110.34;5010924;28;20037;-78
2022/03/21 09:42:25;;;;;;;26.17;11.70;;;;;;;10.10;30.02;99111.28;5010768;28;20029;-77
2022/03/21 09:44:52;;;;;;;19.85;10.27;;;;;;;10.29;29.76;99117.75;5011292;28;20091;-78
2022/03/21 09:50:12;;;;;;;22.55;11.20;;;;;;;10.72;29.72;99113.50;5009927;28;20040;-77
2022/03/21 09:52:38;;;;;;;24.23;11.20;;;;;;;12.25;28.18;99097.41;5007851;28;20061;-78
2022/03/21 09:55:05;;;;;;;33.15;12.70;;;;;;;13.29;27.08;99098.94;5004039;28;20061;-78
2022/03/21 09:57:31;;;;;;;23.63;12.15;;;;;;;11.90;28.58;99103.44;5010670;28;20033;-77
2022/03/21 09:59:58;;;;;;;20.23;10.55;;;;;;;12.26;28.22;99099.16;5011191;28;20075;-78
2022/03/21 10:02:24;;;;;;;22.05;11.48;;;;;;;12.74;27.79;99103.25;5010824;28;20032;-78
2022/03/21 10:04:50;;;;;;;22.90;11.50;;;;;;;14.07;26.08;99081.50;5010560;28;20029;-79
2022/03/21 10:07:24;;;;;;;24.80;11.20;;;;;;;13.77;26.17;99082.19;5004082;28;20030;-77
2022/03/21 10:10:07;;;;;;;23.65;11.40;;;;;;;15.29;25.06;99077.63;5010642;28;20426;-78
2022/03/21 10:12:34;;;;;;;42.95;23.38;;;;;;;16.26;24.21;99064.69;5007780;28;20452;-79
2022/03/21 10:14:59;;;;;;;32.53;17.75;;;;;;;15.00;25.41;99055.84;5006419;28;20029;-78
2022/03/21 10:17:25;;;;;;;32.95;17.55;;;;;;;15.32;24.49;99059.41;5010528;28;20489;-79
2022/03/21 10:19:52;;;;;;;26.33;12.07;;;;;;;13.97;25.88;99061.38;5005882;28;20025;-79
2022/03/21 10:22:20;;;;;;;25.77;14.65;;;;;;;12.40;27.62;99064.53;5010774;28;20029;-78
2022/03/21 10:24:48;;;;;;;28.40;15.00;;;;;;;12.91;27.93;99076.50;4994098;28;20022;-78
2022/03/21 10:27:47;;;;;;;21.48;12.05;;;;;;;14.98;24.99;99054.22;5010284;28;20029;-79
2022/03/21 10:30:18;;;;;;;19.27;10.07;;;;;;;16.42;23.34;99045.72;4980205;28;20044;-79
2022/03/21 10:32:52;;;;;;;18.10;10.82;;;;;;;17.97;22.00;99021.13;5004150;28;20068;-78
2022/03/21 10:35:23;;;;;;;24.88;14.23;;;;;;;18.67;21.56;99021.66;5010024;28;20050;-78
2022/03/21 10:37:54;;;;;;;20.43;12.13;;;;;;;15.97;23.28;99022.34;5010250;28;20025;-78
2022/03/21 10:40:47;;;;;;;30.63;13.95;;;;;;;16.92;23.32;99019.09;5010672;28;20417;-79
2022/03/21 10:43:16;;;;;;;;;;;;;;;16.10;23.45;99016.13;5007921;28;20428;-79
2022/03/21 10:45:53;;;;;;;22.35;12.45;;;;;;;15.59;24.08;99017.44;4998447;28;20347;-78
2022/03/21 10:48:29;;;;;;;28.60;13.05;;;;;;;15.99;23.39;99015.94;5014683;28;20485;-79
2022/03/21 10:50:56;;;;;;;18.73;10.75;;;;;;;13.75;25.15;99008.78;5014432;28;20032;-79
2022/03/21 10:53:27;;;;;;;24.52;9.00;;;;;;;13.43;26.30;99034.59;5013901;28;20025;-79
2022/03/21 10:56:04;;;;;;;23.15;9.30;;;;;;;15.20;24.54;99027.75;4997749;28;20096;-79
2022/03/21 10:58:47;;;;;;;15.10;8.90;;;;;;;14.98;23.70;99003.84;5011450;28;20028;-80
2022/03/21 11:01:16;;;;;;;;;;;;;;;16.93;22.00;99010.03;5014793;28;20195;-79
2022/03/21 11:03:44;;;;;;;16.10;10.07;;;;;;;16.23;22.37;98997.34;5030242;28;20415;-79
2022/03/21 11:06:11;;;;;;;21.70;9.80;;;;;;;17.71;21.37;98987.72;5004602;28;20533;-80
2022/03/21 11:08:37;;;;;;;17.60;9.38;;;;;;;18.54;20.71;98974.72;5003082;28;20030;-78
2022/03/21 11:11:03;;;;;;;15.95;9.18;;;;;;;18.48;20.75;98965.16;5009660;28;20037;-77
2022/03/21 11:13:30;;;;;;;34.45;15.18;;;;;;;16.95;21.87;98964.81;5013675;28;20048;-77
2022/03/21 11:15:56;;;;;;;40.97;16.80;;;;;;;15.79;24.25;98980.28;5010853;28;20026;-77
2022/03/21 11:18:23;;;;;;;34.08;21.27;;;;;;;16.37;23.92;98980.28;5012600;28;20468;-78
2022/03/21 11:20:49;;;;;;;27.60;13.70;;;;;;;16.63;22.53;98966.91;5006971;28;20033;-78
2022/03/21 11:23:15;;;;;;;21.38;11.73;;;;;;;16.24;23.71;98966.69;5013688;28;20014;-79
2022/03/21 11:25:52;;;;;;;29.92;12.38;;;;;;;15.75;22.93;98957.16;5011729;28;20515;-79
2022/03/21 11:28:48;;;;;;;40.10;14.13;;;;;;;14.20;24.45;98949.84;5013089;28;20219;-79
2022/03/21 11:31:19;;;;;;;19.85;9.68;;;;;;;14.29;24.08;98970.88;5031245;28;20041;-79
2022/03/21 11:33:58;;;;;;;18.00;9.20;;;;;;;12.17;25.88;98960.06;4996888;28;20347;-78
2022/03/21 11:36:24;;;;;;;15.95;9.02;;;;;;;12.03;27.07;98967.00;4996862;28;20559;-78
2022/03/21 11:38:57;;;;;;;28.08;11.27;;;;;;;13.53;26.20;98961.44;5013678;28;20041;-80
2022/03/21 11:41:26;;;;;;;17.15;9.85;;;;;;;14.29;24.62;98962.81;5013388;28;20033;-78
2022/03/21 11:44:04;;;;;;;16.70;10.13;;;;;;;14.81;25.29;98968.03;5002788;28;20057;-79
2022/03/21 11:46:33;;;;;;;21.25;12.90;;;;;;;15.25;24.50;98962.81;5013239;28;20030;-78
2022/03/21 11:49:22;;;;;;;31.67;14.40;;;;;;;13.85;26.03;98961.63;5012169;28;20072;-79
2022/03/21 11:51:58;;;;;;;30.70;14.30;;;;;;;13.86;25.75;98947.22;5029367;28;20068;-78
2022/03/21 11:54:37;;;;;;;23.77;15.02;;;;;;;14.05;25.73;98951.56;5011957;28;20400;-78
2022/03/21 11:57:11;;;;;;;30.67;14.30;;;;;;;13.33;27.37;98956.25;5012678;28;20056;-78
2022/03/21 11:59:39;;;;;;;26.27;13.10;;;;;;;12.44;27.87;98955.22;5013028;28;20412;-79
2022/03/21 12:02:07;;;;;;;32.85;13.30;;;;;;;11.75;28.60;98962.84;5024104;28;20057;-78
2022/03/21 12:04:33;;;;;;;28.80;11.73;;;;;;;10.42;29.66;98946.13;5030553;28;20208;-78
2022/03/21 12:07:19;;;;;;;26.52;11.20;;;;;;;10.23;30.38;98962.00;4996311;28;20033;-78
2022/03/21 12:09:46;;;;;;;26.23;11.68;;;;;;;10.17;30.66;98967.56;5002505;28;20401;-77